createdAt,value
2022-10-17T00:00:57.483Z,4.65
2022-10-17T00:03:24.372Z,4.07
2022-10-17T00:05:51.211Z,4.18
2022-10-17T00:08:19.451Z,3.83
2022-10-17T00:10:54.880Z,6.32
2022-10-17T00:13:21.843Z,5.68
2022-10-17T00:15:48.849Z,7.32
2022-10-17T00:18:15.673Z,6.38
2022-10-17T00:20:42.535Z,8.35
2022-10-17T00:23:09.399Z,10.23
2022-10-17T00:25:37.109Z,15.38
2022-10-17T00:28:04.152Z,16.45
2022-10-17T00:30:32.867Z,15.82
2022-10-17T00:32:59.751Z,14.10
2022-10-17T00:35:26.708Z,12.35
2022-10-17T00:37:53.486Z,11.65
2022-10-17T00:40:20.640Z,11.77
2022-10-17T00:42:48.173Z,10.30
2022-10-17T00:45:20.407Z,11.43
2022-10-17T00:47:54.623Z,12.38
2022-10-17T00:50:22.141Z,12.63
2022-10-17T00:52:49.481Z,12.95
2022-10-17T00:55:24.646Z,11.20
2022-10-17T00:57:52.780Z,11.63
2022-10-17T01:00:20.843Z,9.43
2022-10-17T01:02:48.487Z,10.45
2022-10-17T01:05:17.011Z,8.85
2022-10-17T01:07:48.620Z,9.55
2022-10-17T01:10:16.191Z,9.45
2022-10-17T01:13:07.323Z,8.63
2022-10-17T01:15:57.032Z,7.72
2022-10-17T01:18:40.233Z,7.32
2022-10-17T01:21:07.032Z,6.03
2022-10-17T01:24:16.716Z,5.57
2022-10-17T01:26:58.827Z,4.53
2022-10-17T01:29:54.208Z,5.90
2022-10-17T01:32:45.858Z,5.00
2022-10-17T01:35:21.650Z,4.70
2022-10-17T01:38:01.359Z,4.75
2022-10-17T01:40:50.484Z,5.45
2022-10-17T01:43:25.892Z,5.03
2022-10-17T01:46:00.753Z,4.80
2022-10-17T01:48:34.992Z,4.15
2022-10-17T01:51:34.365Z,5.72
2022-10-17T01:54:30.764Z,4.45
2022-10-17T01:57:01.644Z,4.63
2022-10-17T01:59:44.359Z,4.47
2022-10-17T02:02:14.131Z,4.05
2022-10-17T02:04:42.209Z,6.18
2022-10-17T02:07:13.789Z,4.65
2022-10-17T02:09:40.707Z,4.22
2022-10-17T02:12:22.841Z,5.10
2022-10-17T02:15:08.211Z,3.80
2022-10-17T02:17:56.787Z,4.55
2022-10-17T02:20:50.832Z,4.38
2022-10-17T02:23:51.543Z,4.85
2022-10-17T02:26:28.598Z,4.70
2022-10-17T02:28:55.528Z,4.38
2022-10-17T02:31:31.670Z,4.97
2022-10-17T02:34:04.982Z,4.63
2022-10-17T02:36:43.341Z,5.32
2022-10-17T02:39:11.673Z,4.20
2022-10-17T02:41:40.749Z,4.57
2022-10-17T02:44:08.680Z,4.40
2022-10-17T02:46:37.214Z,6.53
2022-10-17T02:49:06.969Z,4.40
2022-10-17T02:51:44.913Z,5.63
2022-10-17T02:54:24.755Z,7.05
2022-10-17T02:57:03.663Z,4.47
2022-10-17T03:02:06.501Z,5.07
2022-10-17T03:04:34.192Z,5.30
2022-10-17T03:07:01.030Z,4.15
2022-10-17T03:09:28.120Z,6.13
2022-10-17T03:11:55.330Z,5.07
2022-10-17T03:14:22.172Z,4.95
2022-10-17T03:16:48.982Z,5.78
2022-10-17T03:19:15.820Z,5.53
2022-10-17T03:21:42.750Z,8.65
2022-10-17T03:24:09.715Z,6.00
2022-10-17T03:26:36.670Z,7.30
2022-10-17T03:29:04.145Z,6.22
2022-10-17T03:31:31.411Z,6.55
2022-10-17T03:33:58.391Z,5.80
2022-10-17T03:36:25.230Z,6.53
2022-10-17T03:38:55.366Z,6.57
2022-10-17T03:41:22.602Z,5.75
2022-10-17T03:43:49.423Z,6.80
2022-10-17T03:48:48.004Z,7.50
2022-10-17T03:51:15.512Z,6.32
2022-10-17T03:53:42.522Z,7.50
2022-10-17T03:56:20.635Z,6.40
2022-10-17T03:58:47.696Z,6.70
2022-10-17T04:01:16.955Z,8.68
2022-10-17T04:03:44.250Z,7.82
2022-10-17T04:06:12.902Z,7.63
2022-10-17T04:08:40.034Z,8.30
2022-10-17T04:11:08.022Z,7.60
2022-10-17T04:13:35.564Z,8.77
2022-10-17T04:16:05.617Z,9.75
2022-10-17T04:18:32.980Z,9.10
2022-10-17T04:21:04.853Z,9.45
2022-10-17T04:23:32.037Z,8.18
2022-10-17T04:26:00.591Z,9.48
2022-10-17T04:28:28.346Z,8.40
2022-10-17T04:31:04.295Z,9.02
2022-10-17T04:33:31.931Z,8.77
2022-10-17T04:36:04.295Z,8.98
2022-10-17T04:38:31.768Z,8.52
2022-10-17T04:41:03.055Z,9.07
2022-10-17T04:43:35.883Z,9.73
2022-10-17T04:46:05.321Z,9.75
2022-10-17T04:48:35.123Z,9.65
2022-10-17T04:51:10.866Z,8.75
2022-10-17T04:53:38.895Z,9.40
2022-10-17T04:56:11.800Z,9.32
2022-10-17T04:58:39.697Z,9.93
2022-10-17T05:01:08.327Z,10.60
2022-10-17T05:03:36.250Z,9.27
2022-10-17T05:06:14.731Z,9.82
2022-10-17T05:08:42.189Z,10.95
2022-10-17T05:11:19.752Z,10.23
2022-10-17T05:13:51.350Z,9.90
2022-10-17T05:16:18.330Z,10.05
2022-10-17T05:18:52.644Z,12.23
2022-10-17T05:21:21.359Z,11.00
2022-10-17T05:23:48.293Z,10.73
2022-10-17T05:26:15.629Z,11.68
2022-10-17T05:28:42.517Z,11.50
2022-10-17T05:31:11.379Z,11.75
2022-10-17T05:33:39.209Z,12.10
2022-10-17T05:36:06.867Z,11.93
2022-10-17T05:38:36.503Z,11.70
2022-10-17T05:41:05.171Z,11.13
2022-10-17T05:43:33.041Z,12.20
2022-10-17T05:46:03.982Z,12.27
2022-10-17T05:48:30.916Z,11.70
2022-10-17T05:50:59.865Z,12.52
2022-10-17T05:53:29.774Z,13.00
2022-10-17T05:56:01.784Z,12.75
2022-10-17T06:01:15.899Z,13.35
2022-10-17T06:03:42.911Z,12.73
2022-10-17T06:06:14.427Z,11.95
2022-10-17T06:08:41.338Z,13.35
2022-10-17T06:11:10.209Z,12.70
2022-10-17T06:13:38.346Z,13.52
2022-10-17T06:16:06.182Z,15.10
2022-10-17T06:18:33.587Z,13.60
2022-10-17T06:21:09.833Z,14.10
2022-10-17T06:23:36.702Z,14.07
2022-10-17T06:26:05.734Z,13.90
2022-10-17T06:28:33.369Z,13.98
2022-10-17T06:31:03.750Z,13.25
2022-10-17T06:33:30.639Z,12.35
2022-10-17T06:35:57.759Z,12.25
2022-10-17T06:38:24.716Z,12.38
2022-10-17T06:40:51.954Z,12.75
2022-10-17T06:43:18.861Z,12.73
2022-10-17T06:45:48.695Z,11.75
2022-10-17T06:48:15.674Z,12.45
2022-10-17T06:50:42.744Z,12.55
2022-10-17T06:53:09.647Z,12.43
2022-10-17T06:55:36.608Z,11.23
2022-10-17T06:58:03.545Z,13.60
2022-10-17T07:00:30.489Z,13.30
2022-10-17T07:02:57.389Z,11.43
2022-10-17T07:05:24.367Z,12.25
2022-10-17T07:07:52.041Z,11.52
2022-10-17T07:10:19.187Z,12.60
2022-10-17T07:12:46.229Z,10.98
2022-10-17T07:15:13.404Z,13.38
2022-10-17T07:17:40.261Z,11.65
2022-10-17T07:20:07.953Z,11.82
2022-10-17T07:22:34.929Z,11.60
2022-10-17T07:25:01.887Z,11.63
2022-10-17T07:27:29.217Z,11.18
2022-10-17T07:29:56.404Z,11.27
2022-10-17T07:32:23.406Z,11.75
2022-10-17T07:34:50.278Z,10.85
2022-10-17T07:37:17.178Z,9.63
2022-10-17T07:39:44.003Z,9.70
2022-10-17T07:42:10.813Z,11.00
2022-10-17T07:44:37.624Z,10.32
2022-10-17T07:47:04.497Z,11.00
2022-10-17T07:49:31.478Z,9.20
2022-10-17T07:51:58.441Z,8.40
2022-10-17T07:54:25.404Z,8.82
2022-10-17T07:56:52.406Z,8.30
2022-10-17T07:59:19.732Z,9.50
2022-10-17T08:01:46.583Z,10.07
2022-10-17T08:04:13.450Z,7.78
2022-10-17T08:06:40.405Z,8.52
2022-10-17T08:09:07.298Z,10.73
2022-10-17T08:11:35.948Z,8.45
2022-10-17T08:14:03.084Z,7.18
2022-10-17T08:16:29.916Z,7.18
2022-10-17T08:18:56.997Z,7.80
2022-10-17T08:21:23.919Z,8.50
2022-10-17T08:23:50.766Z,7.60
2022-10-17T08:26:19.959Z,8.00
2022-10-17T08:28:48.107Z,7.20
2022-10-17T08:31:20.623Z,6.82
2022-10-17T08:33:48.756Z,7.43
2022-10-17T08:36:17.978Z,7.32
2022-10-17T08:38:47.978Z,7.63
2022-10-17T08:41:52.413Z,6.15
2022-10-17T08:44:19.392Z,7.00
2022-10-17T08:46:49.021Z,6.68
2022-10-17T08:49:46.920Z,6.85
2022-10-17T08:52:35.154Z,6.57
2022-10-17T08:55:02.079Z,7.25
2022-10-17T08:57:29.390Z,8.07
2022-10-17T08:59:57.158Z,7.85
2022-10-17T09:02:47.754Z,7.25
2022-10-17T09:05:35.958Z,6.78
2022-10-17T09:08:28.306Z,6.57
2022-10-17T09:11:04.809Z,7.43
2022-10-17T09:13:46.578Z,6.53
2022-10-17T09:16:32.059Z,7.35
2022-10-17T09:19:08.825Z,7.20
2022-10-17T09:21:50.983Z,6.97
2022-10-17T09:24:25.384Z,7.40
2022-10-17T09:26:54.625Z,6.97
2022-10-17T09:29:28.546Z,8.95
2022-10-17T09:32:04.723Z,6.18
2022-10-17T09:34:33.055Z,6.70
2022-10-17T09:37:02.010Z,6.20
2022-10-17T09:39:33.166Z,5.78
2022-10-17T09:42:01.560Z,6.25
2022-10-17T09:44:32.966Z,6.32
2022-10-17T09:47:21.894Z,6.25
2022-10-17T09:49:49.997Z,6.13
2022-10-17T09:52:29.409Z,7.38
2022-10-17T09:55:03.159Z,6.78
2022-10-17T09:57:52.753Z,7.28
2022-10-17T10:00:31.988Z,6.80
2022-10-17T10:03:21.117Z,6.93
2022-10-17T10:06:13.795Z,7.32
2022-10-17T10:09:03.336Z,7.60
2022-10-17T10:11:48.809Z,8.25
2022-10-17T10:14:33.479Z,8.95
2022-10-17T10:17:02.308Z,8.75
2022-10-17T10:19:37.233Z,8.63
2022-10-17T10:22:06.295Z,10.27
2022-10-17T10:24:33.286Z,9.82
2022-10-17T10:27:04.704Z,9.13
2022-10-17T10:29:43.270Z,9.93
2022-10-17T10:32:13.117Z,8.95
2022-10-17T10:34:52.776Z,10.70
2022-10-17T10:37:26.355Z,10.00
2022-10-17T10:39:59.617Z,10.48
2022-10-17T10:42:36.090Z,10.75
2022-10-17T10:45:35.879Z,10.65
2022-10-17T10:48:24.105Z,12.18
2022-10-17T10:51:00.594Z,10.90
2022-10-17T10:54:03.764Z,11.50
2022-10-17T10:56:54.246Z,11.02
2022-10-17T10:59:30.508Z,10.63
2022-10-17T11:02:05.033Z,9.82
2022-10-17T11:04:46.589Z,11.20
2022-10-17T11:07:13.334Z,10.93
2022-10-17T11:09:42.887Z,10.43
2022-10-17T11:12:27.469Z,11.23
2022-10-17T11:15:18.424Z,10.73
2022-10-17T11:18:07.401Z,13.80
2022-10-17T11:20:58.482Z,11.55
2022-10-17T11:23:25.252Z,13.38
2022-10-17T11:25:54.389Z,11.10
2022-10-17T11:28:24.599Z,11.40
2022-10-17T11:31:14.863Z,11.38
2022-10-17T11:33:56.931Z,12.48
2022-10-17T11:36:30.771Z,10.52
2022-10-17T11:41:49.302Z,11.68
2022-10-17T11:44:36.458Z,9.55
2022-10-17T11:47:17.684Z,12.45
2022-10-17T11:52:58.726Z,11.32
2022-10-17T11:55:28.573Z,8.57
2022-10-17T11:58:33.347Z,8.32
2022-10-17T12:03:53.364Z,9.00
2022-10-17T12:06:38.416Z,9.25
2022-10-17T12:09:25.571Z,10.18
2022-10-17T12:11:59.632Z,7.47
2022-10-17T12:14:48.586Z,9.52
2022-10-17T12:17:38.930Z,7.75
2022-10-17T12:20:21.682Z,6.95
2022-10-17T12:22:54.139Z,7.13
2022-10-17T12:25:24.045Z,7.38
2022-10-17T12:28:13.223Z,7.30
2022-10-17T12:31:00.277Z,7.32
2022-10-17T12:33:34.771Z,6.70
2022-10-17T12:36:17.029Z,7.10
2022-10-17T12:38:56.758Z,6.30
2022-10-17T12:41:39.023Z,7.53
2022-10-17T12:44:15.246Z,5.70
2022-10-17T12:46:57.490Z,5.15
2022-10-17T12:49:46.944Z,5.90
2022-10-17T12:52:27.209Z,4.32
2022-10-17T12:55:07.171Z,4.50
2022-10-17T13:00:43.824Z,3.53
2022-10-17T13:03:22.525Z,4.40
2022-10-17T13:05:54.305Z,4.47
2022-10-17T13:08:38.814Z,4.00
2022-10-17T13:11:07.679Z,4.28
2022-10-17T13:13:49.441Z,4.10
2022-10-17T13:16:33.125Z,4.30
2022-10-17T13:19:01.360Z,4.50
2022-10-17T13:21:29.306Z,4.43
2022-10-17T13:23:56.325Z,4.05
2022-10-17T13:26:29.546Z,4.07
2022-10-17T13:29:06.970Z,4.30
2022-10-17T13:31:36.404Z,4.75
2022-10-17T13:34:06.457Z,4.82
2022-10-17T13:36:35.349Z,6.18
2022-10-17T13:39:12.192Z,5.45
2022-10-17T13:41:41.714Z,4.85
2022-10-17T13:44:23.342Z,5.10
2022-10-17T13:46:50.638Z,4.60
2022-10-17T13:49:32.490Z,4.43
2022-10-17T13:52:01.315Z,4.65
2022-10-17T13:54:41.262Z,4.68
2022-10-17T13:57:21.830Z,3.97
2022-10-17T14:00:09.906Z,3.97
2022-10-17T14:02:40.666Z,4.28
2022-10-17T14:05:18.689Z,3.17
2022-10-17T14:08:10.589Z,3.15
2022-10-17T14:10:41.015Z,3.10
2022-10-17T14:13:21.391Z,3.03
2022-10-17T14:15:48.612Z,3.03
2022-10-17T14:18:33.284Z,3.33
2022-10-17T14:23:52.660Z,3.35
2022-10-17T14:26:22.191Z,3.65
2022-10-17T14:29:07.681Z,2.88
2022-10-17T14:31:37.027Z,3.08
2022-10-17T14:34:05.443Z,3.20
2022-10-17T14:36:37.062Z,3.70
2022-10-17T14:39:10.572Z,2.58
2022-10-17T14:41:44.551Z,3.17
2022-10-17T14:44:23.942Z,2.80
2022-10-17T14:47:30.680Z,3.47
2022-10-17T14:50:29.467Z,3.40
2022-10-17T14:53:01.882Z,3.50
2022-10-17T14:55:30.810Z,3.00
2022-10-17T14:57:58.298Z,2.72
2022-10-17T15:00:26.266Z,4.30
2022-10-17T15:02:55.249Z,4.07
2022-10-17T15:05:25.701Z,3.55
2022-10-17T15:07:53.686Z,3.63
2022-10-17T15:10:25.438Z,3.38
2022-10-17T15:12:59.369Z,3.88
2022-10-17T15:15:34.834Z,4.07
2022-10-17T15:18:01.926Z,5.47
2022-10-17T15:20:30.487Z,3.10
2022-10-17T15:22:59.652Z,4.13
2022-10-17T15:25:27.669Z,2.75
2022-10-17T15:27:54.983Z,3.42
2022-10-17T15:30:24.269Z,2.97
2022-10-17T15:32:52.097Z,2.58
2022-10-17T15:35:19.242Z,3.63
2022-10-17T15:37:46.858Z,2.85
2022-10-17T15:40:19.842Z,2.53
2022-10-17T15:42:46.893Z,2.93
2022-10-17T15:45:16.398Z,3.58
2022-10-17T15:47:49.286Z,3.33
2022-10-17T15:50:17.508Z,3.08
2022-10-17T15:52:44.486Z,2.17
2022-10-17T15:55:11.595Z,2.40
2022-10-17T15:57:41.404Z,2.78
2022-10-17T16:00:16.814Z,2.65
2022-10-17T16:02:44.255Z,2.78
2022-10-17T16:05:19.381Z,2.95
2022-10-17T16:07:46.829Z,4.55
2022-10-17T16:10:14.568Z,2.35
2022-10-17T16:12:42.106Z,2.70
2022-10-17T16:15:18.191Z,2.38
2022-10-17T16:17:45.147Z,4.03
2022-10-17T16:20:13.308Z,2.80
2022-10-17T16:22:42.640Z,4.85
2022-10-17T16:25:23.206Z,3.22
2022-10-17T16:27:52.271Z,3.25
2022-10-17T16:32:47.342Z,4.80
2022-10-17T16:35:26.295Z,3.97
2022-10-17T16:37:53.363Z,4.28
2022-10-17T16:40:20.411Z,4.82
2022-10-17T16:42:47.271Z,3.50
2022-10-17T16:45:21.794Z,3.17
2022-10-17T16:47:49.741Z,3.38
2022-10-17T16:50:16.897Z,5.07
2022-10-17T16:52:43.741Z,3.20
2022-10-17T16:55:10.678Z,3.83
2022-10-17T16:57:37.781Z,3.50
2022-10-17T17:00:06.692Z,4.93
2022-10-17T17:02:33.970Z,6.32
2022-10-17T17:05:00.996Z,4.50
2022-10-17T17:07:29.668Z,5.18
2022-10-17T17:09:56.931Z,5.28
2022-10-17T17:12:24.429Z,4.53
2022-10-17T17:14:51.558Z,4.35
2022-10-17T17:17:30.418Z,4.82
2022-10-17T17:20:06.642Z,4.95
2022-10-17T17:22:33.511Z,5.10
2022-10-17T17:25:00.387Z,4.80
2022-10-17T17:27:28.674Z,5.43
2022-10-17T17:29:55.887Z,5.63
2022-10-17T17:32:22.828Z,5.72
2022-10-17T17:34:49.704Z,5.85
2022-10-17T17:37:16.655Z,5.03
2022-10-17T17:39:43.500Z,6.03
2022-10-17T17:42:10.416Z,6.05
2022-10-17T17:44:37.286Z,6.72
2022-10-17T17:47:04.237Z,6.47
2022-10-17T17:49:31.084Z,7.60
2022-10-17T17:51:58.669Z,7.47
2022-10-17T17:54:25.572Z,8.07
2022-10-17T17:56:52.502Z,8.32
2022-10-17T17:59:19.293Z,9.35
2022-10-17T18:01:46.323Z,7.68
2022-10-17T18:04:13.430Z,8.07
2022-10-17T18:06:40.686Z,9.13
2022-10-17T18:09:09.059Z,8.50
2022-10-17T18:11:37.353Z,8.65
2022-10-17T18:14:07.341Z,8.43
2022-10-17T18:16:35.784Z,9.27
2022-10-17T18:19:08.920Z,8.65
2022-10-17T18:21:36.746Z,9.40
2022-10-17T18:24:04.899Z,9.50
2022-10-17T18:26:32.224Z,10.45
2022-10-17T18:28:59.271Z,10.20
2022-10-17T18:31:35.477Z,13.55
2022-10-17T18:34:04.555Z,10.55
2022-10-17T18:36:32.747Z,11.95
2022-10-17T18:39:00.559Z,11.82
2022-10-17T18:41:28.258Z,10.45
2022-10-17T18:43:56.190Z,13.27
2022-10-17T18:46:28.269Z,11.38
2022-10-17T18:48:55.545Z,11.80
2022-10-17T18:51:24.373Z,13.20
2022-10-17T18:53:55.400Z,11.95
2022-10-17T18:56:22.914Z,13.50
2022-10-17T18:58:49.773Z,13.23
2022-10-17T19:01:19.949Z,13.77
2022-10-17T19:03:48.396Z,13.40
2022-10-17T19:06:18.088Z,13.77
2022-10-17T19:08:45.385Z,14.68
2022-10-17T19:11:17.612Z,14.00
2022-10-17T19:16:20.803Z,14.90
2022-10-17T19:18:56.403Z,14.95
2022-10-17T19:21:23.588Z,16.50
2022-10-17T19:24:12.696Z,15.65
2022-10-17T19:26:40.879Z,15.15
2022-10-17T19:29:07.951Z,15.45
2022-10-17T19:31:39.866Z,17.08
2022-10-17T19:34:06.718Z,16.60
2022-10-17T19:36:35.436Z,17.13
2022-10-17T19:39:07.179Z,18.23
2022-10-17T19:41:35.397Z,17.30
2022-10-17T19:44:03.027Z,16.65
2022-10-17T19:46:30.993Z,16.92
2022-10-17T19:48:58.236Z,17.55
2022-10-17T19:51:26.473Z,19.58
2022-10-17T19:53:55.636Z,19.42
2022-10-17T19:56:24.548Z,17.70
2022-10-17T19:58:51.905Z,18.98
2022-10-17T20:01:21.350Z,20.42
2022-10-17T20:03:48.601Z,18.58
2022-10-17T20:06:16.258Z,21.85
2022-10-17T20:08:43.369Z,18.52
2022-10-17T20:11:19.190Z,19.23
2022-10-17T20:13:46.352Z,21.15
2022-10-17T20:16:22.530Z,20.90
2022-10-17T20:18:51.344Z,19.63
2022-10-17T20:21:21.492Z,20.80
2022-10-17T20:23:49.027Z,20.13
2022-10-17T20:26:33.199Z,21.40
2022-10-17T20:29:08.743Z,20.60
2022-10-17T20:31:36.320Z,20.90
2022-10-17T20:34:03.577Z,21.52
2022-10-17T20:36:30.685Z,21.33
2022-10-17T20:38:58.976Z,20.63
2022-10-17T20:41:26.944Z,19.45
2022-10-17T20:43:55.147Z,19.83
2022-10-17T20:46:36.283Z,22.48
2022-10-17T20:49:05.505Z,21.98
2022-10-17T20:51:32.690Z,22.23
2022-10-17T20:53:59.574Z,21.55
2022-10-17T20:56:29.506Z,24.77
2022-10-17T20:59:01.905Z,21.00
2022-10-17T21:01:30.844Z,23.90
2022-10-17T21:04:06.226Z,22.05
2022-10-17T21:06:43.087Z,22.60
2022-10-17T21:09:09.960Z,24.77
2022-10-17T21:11:37.380Z,22.58
2022-10-17T21:14:06.962Z,25.02
2022-10-17T21:16:37.323Z,23.75
2022-10-17T21:19:05.339Z,24.00
2022-10-17T21:21:34.873Z,23.13
2022-10-17T21:24:06.464Z,25.17
2022-10-17T21:26:35.328Z,26.85
2022-10-17T21:29:06.003Z,25.20
2022-10-17T21:31:34.905Z,23.90
2022-10-17T21:34:09.435Z,23.48
2022-10-17T21:36:36.721Z,24.83
2022-10-17T21:39:04.523Z,26.10
2022-10-17T21:41:31.900Z,24.42
2022-10-17T21:44:01.732Z,24.45
2022-10-17T21:46:29.183Z,26.35
2022-10-17T21:48:56.455Z,24.65
2022-10-17T21:51:25.785Z,25.60
2022-10-17T21:53:54.448Z,23.67
2022-10-17T21:56:23.798Z,21.25
2022-10-17T21:58:51.732Z,24.70
2022-10-17T22:01:34.103Z,24.70
2022-10-17T22:04:03.217Z,24.20
2022-10-17T22:06:39.801Z,25.67
2022-10-17T22:09:19.213Z,25.85
2022-10-17T22:11:49.084Z,25.75
2022-10-17T22:14:21.019Z,26.60
2022-10-17T22:16:49.009Z,29.38
2022-10-17T22:19:25.627Z,30.15
2022-10-17T22:21:53.296Z,25.42
2022-10-17T22:26:53.536Z,31.67
2022-10-17T22:29:20.629Z,25.58
2022-10-17T22:31:50.651Z,30.20
2022-10-17T22:34:18.570Z,31.10
2022-10-17T22:36:48.668Z,28.15
2022-10-17T22:39:15.503Z,27.60
2022-10-17T22:41:42.376Z,26.85
2022-10-17T22:44:09.382Z,27.92
2022-10-17T22:46:36.489Z,27.60
2022-10-17T22:49:03.826Z,26.05
2022-10-17T22:51:30.855Z,27.45
2022-10-17T22:53:57.726Z,26.25
2022-10-17T22:56:24.671Z,25.92
2022-10-17T22:58:51.864Z,25.27
2022-10-17T23:01:22.112Z,26.98
2022-10-17T23:03:49.572Z,25.38
2022-10-17T23:06:16.691Z,27.95
2022-10-17T23:08:43.808Z,24.00
2022-10-17T23:11:11.149Z,23.95
2022-10-17T23:13:38.071Z,24.85
2022-10-17T23:16:05.360Z,24.95
2022-10-17T23:18:32.297Z,28.30
2022-10-17T23:20:59.382Z,27.85
2022-10-17T23:23:26.251Z,26.70
2022-10-17T23:25:53.400Z,31.40
2022-10-17T23:28:20.345Z,30.63
2022-10-17T23:30:47.284Z,27.05
2022-10-17T23:33:14.834Z,27.63
2022-10-17T23:35:41.891Z,28.98
2022-10-17T23:38:09.804Z,27.60
2022-10-17T23:40:36.805Z,28.48
2022-10-17T23:43:04.539Z,28.40
2022-10-17T23:45:36.057Z,27.95
2022-10-17T23:48:03.174Z,31.20
2022-10-17T23:50:30.109Z,31.98
2022-10-17T23:52:56.949Z,31.02
2022-10-17T23:55:23.800Z,31.83
2022-10-17T23:57:50.706Z,32.78
